sensor_id;sensor_type;location;lat;lon;timestamp;P1;durP1;ratioP1;P2;durP2;ratioP2
55692;SDS011;41590;53.366;5.212;2022-09-13T00:00:40;16.67;;;5.40;;
55692;SDS011;41590;53.366;5.212;2022-09-13T00:03:07;18.15;;;5.80;;
55692;SDS011;41590;53.366;5.212;2022-09-13T00:05:34;15.93;;;5.25;;
55692;SDS011;41590;53.366;5.212;2022-09-13T00:08:01;13.40;;;5.20;;
55692;SDS011;41590;53.366;5.212;2022-09-13T00:10:27;14.30;;;4.68;;
55692;SDS011;41590;53.366;5.212;2022-09-13T00:12:54;11.80;;;4.30;;
55692;SDS011;41590;53.366;5.212;2022-09-13T00:15:21;12.65;;;4.68;;
55692;SDS011;41590;53.366;5.212;2022-09-13T00:17:47;7.20;;;3.80;;
55692;SDS011;41590;53.366;5.212;2022-09-13T00:20:13;14.38;;;5.10;;
55692;SDS011;41590;53.366;5.212;2022-09-13T00:22:39;10.70;;;4.22;;
55692;SDS011;41590;53.366;5.212;2022-09-13T00:25:05;8.70;;;3.65;;
55692;SDS011;41590;53.366;5.212;2022-09-13T00:27:35;9.52;;;3.78;;
55692;SDS011;41590;53.366;5.212;2022-09-13T00:30:04;9.70;;;3.33;;
55692;SDS011;41590;53.366;5.212;2022-09-13T00:32:32;8.00;;;3.67;;
55692;SDS011;41590;53.366;5.212;2022-09-13T00:35:03;11.48;;;3.97;;
55692;SDS011;41590;53.366;5.212;2022-09-13T00:37:30;11.13;;;3.20;;
55692;SDS011;41590;53.366;5.212;2022-09-13T00:39:57;10.90;;;3.45;;
55692;SDS011;41590;53.366;5.212;2022-09-13T00:42:27;10.75;;;3.55;;
55692;SDS011;41590;53.366;5.212;2022-09-13T00:53:10;10.35;;;3.05;;
55692;SDS011;41590;53.366;5.212;2022-09-13T00:58:13;5.90;;;1.60;;
55692;SDS011;41590;53.366;5.212;2022-09-13T01:00:42;6.57;;;1.13;;
55692;SDS011;41590;53.366;5.212;2022-09-13T01:03:10;2.25;;;0.70;;
55692;SDS011;41590;53.366;5.212;2022-09-13T01:05:43;4.90;;;0.95;;
55692;SDS011;41590;53.366;5.212;2022-09-13T01:08:13;6.43;;;1.00;;
55692;SDS011;41590;53.366;5.212;2022-09-13T01:10:47;6.00;;;0.90;;
55692;SDS011;41590;53.366;5.212;2022-09-13T01:13:17;4.63;;;0.73;;
55692;SDS011;41590;53.366;5.212;2022-09-13T01:15:51;4.53;;;0.70;;
55692;SDS011;41590;53.366;5.212;2022-09-13T01:18:17;6.93;;;0.77;;
55692;SDS011;41590;53.366;5.212;2022-09-13T01:24:01;4.05;;;0.70;;
55692;SDS011;41590;53.366;5.212;2022-09-13T01:35:09;4.13;;;0.68;;
55692;SDS011;41590;53.366;5.212;2022-09-13T01:37:49;7.88;;;1.02;;
55692;SDS011;41590;53.366;5.212;2022-09-13T01:46:12;2.72;;;0.50;;
55692;SDS011;41590;53.366;5.212;2022-09-13T01:51:51;6.80;;;0.60;;
55692;SDS011;41590;53.366;5.212;2022-09-13T01:54:29;12.10;;;0.77;;
55692;SDS011;41590;53.366;5.212;2022-09-13T01:57:13;3.63;;;0.52;;
55692;SDS011;41590;53.366;5.212;2022-09-13T01:59:48;5.35;;;0.68;;
55692;SDS011;41590;53.366;5.212;2022-09-13T02:08:16;2.92;;;0.52;;
55692;SDS011;41590;53.366;5.212;2022-09-13T02:10:52;2.13;;;0.55;;
55692;SDS011;41590;53.366;5.212;2022-09-13T02:13:34;4.68;;;0.57;;
55692;SDS011;41590;53.366;5.212;2022-09-13T02:19:09;5.63;;;0.60;;
55692;SDS011;41590;53.366;5.212;2022-09-13T02:21:40;6.35;;;1.00;;
55692;SDS011;41590;53.366;5.212;2022-09-13T02:24:11;3.97;;;0.82;;
55692;SDS011;41590;53.366;5.212;2022-09-13T02:26:42;4.03;;;0.52;;
55692;SDS011;41590;53.366;5.212;2022-09-13T02:29:12;4.13;;;0.55;;
55692;SDS011;41590;53.366;5.212;2022-09-13T02:32:27;3.65;;;0.47;;
55692;SDS011;41590;53.366;5.212;2022-09-13T02:34:46;2.07;;;0.70;;
55692;SDS011;41590;53.366;5.212;2022-09-13T02:37:16;5.55;;;0.40;;
55692;SDS011;41590;53.366;5.212;2022-09-13T02:39:45;7.65;;;0.82;;
55692;SDS011;41590;53.366;5.212;2022-09-13T02:42:16;4.35;;;0.73;;
55692;SDS011;41590;53.366;5.212;2022-09-13T02:44:47;3.78;;;0.40;;
55692;SDS011;41590;53.366;5.212;2022-09-13T03:06:26;7.05;;;1.30;;
55692;SDS011;41590;53.366;5.212;2022-09-13T03:08:56;7.97;;;1.10;;
55692;SDS011;41590;53.366;5.212;2022-09-13T03:20:12;5.13;;;0.90;;
55692;SDS011;41590;53.366;5.212;2022-09-13T03:34:27;7.50;;;0.85;;
55692;SDS011;41590;53.366;5.212;2022-09-13T03:40:16;9.80;;;1.02;;
55692;SDS011;41590;53.366;5.212;2022-09-13T03:43:11;4.53;;;0.80;;
55692;SDS011;41590;53.366;5.212;2022-09-13T03:45:53;6.40;;;1.00;;
55692;SDS011;41590;53.366;5.212;2022-09-13T03:48:23;5.30;;;0.70;;
55692;SDS011;41590;53.366;5.212;2022-09-13T03:50:49;8.90;;;1.42;;
55692;SDS011;41590;53.366;5.212;2022-09-13T03:53:18;6.68;;;1.05;;
55692;SDS011;41590;53.366;5.212;2022-09-13T03:55:49;8.68;;;2.03;;
55692;SDS011;41590;53.366;5.212;2022-09-13T03:58:20;8.60;;;1.25;;
55692;SDS011;41590;53.366;5.212;2022-09-13T04:00:47;7.70;;;1.08;;
55692;SDS011;41590;53.366;5.212;2022-09-13T04:03:13;6.32;;;1.33;;
55692;SDS011;41590;53.366;5.212;2022-09-13T04:05:40;5.78;;;0.90;;
55692;SDS011;41590;53.366;5.212;2022-09-13T04:08:07;7.22;;;1.05;;
55692;SDS011;41590;53.366;5.212;2022-09-13T04:10:34;8.82;;;1.40;;
55692;SDS011;41590;53.366;5.212;2022-09-13T04:13:00;9.38;;;1.10;;
55692;SDS011;41590;53.366;5.212;2022-09-13T04:15:27;13.20;;;1.40;;
55692;SDS011;41590;53.366;5.212;2022-09-13T04:17:55;5.43;;;0.98;;
55692;SDS011;41590;53.366;5.212;2022-09-13T04:20:22;7.22;;;0.90;;
55692;SDS011;41590;53.366;5.212;2022-09-13T04:22:52;8.45;;;1.13;;
55692;SDS011;41590;53.366;5.212;2022-09-13T04:25:19;8.00;;;1.10;;
55692;SDS011;41590;53.366;5.212;2022-09-13T04:27:46;10.52;;;1.42;;
55692;SDS011;41590;53.366;5.212;2022-09-13T04:30:13;8.50;;;1.13;;
55692;SDS011;41590;53.366;5.212;2022-09-13T04:32:41;9.65;;;1.13;;
55692;SDS011;41590;53.366;5.212;2022-09-13T04:35:16;6.70;;;1.00;;
55692;SDS011;41590;53.366;5.212;2022-09-13T04:37:47;8.95;;;1.58;;
55692;SDS011;41590;53.366;5.212;2022-09-13T04:40:20;4.50;;;1.00;;
55692;SDS011;41590;53.366;5.212;2022-09-13T04:42:47;5.05;;;0.80;;
55692;SDS011;41590;53.366;5.212;2022-09-13T04:45:13;7.88;;;1.15;;
55692;SDS011;41590;53.366;5.212;2022-09-13T04:47:40;6.25;;;1.00;;
55692;SDS011;41590;53.366;5.212;2022-09-13T04:50:12;8.73;;;1.58;;
55692;SDS011;41590;53.366;5.212;2022-09-13T04:52:42;7.07;;;1.30;;
55692;SDS011;41590;53.366;5.212;2022-09-13T04:55:08;5.65;;;1.10;;
55692;SDS011;41590;53.366;5.212;2022-09-13T04:57:35;9.30;;;1.00;;
55692;SDS011;41590;53.366;5.212;2022-09-13T05:00:01;7.63;;;0.73;;
55692;SDS011;41590;53.366;5.212;2022-09-13T05:02:29;5.93;;;0.90;;
55692;SDS011;41590;53.366;5.212;2022-09-13T05:04:55;7.07;;;0.80;;
55692;SDS011;41590;53.366;5.212;2022-09-13T05:07:23;6.45;;;1.17;;
55692;SDS011;41590;53.366;5.212;2022-09-13T05:09:48;14.60;;;0.98;;
55692;SDS011;41590;53.366;5.212;2022-09-13T05:12:14;7.93;;;0.90;;
55692;SDS011;41590;53.366;5.212;2022-09-13T05:14:40;4.65;;;0.80;;
55692;SDS011;41590;53.366;5.212;2022-09-13T05:17:06;7.60;;;0.60;;
55692;SDS011;41590;53.366;5.212;2022-09-13T05:19:34;3.72;;;0.52;;
55692;SDS011;41590;53.366;5.212;2022-09-13T05:22:01;5.18;;;1.02;;
55692;SDS011;41590;53.366;5.212;2022-09-13T05:24:30;6.45;;;0.65;;
55692;SDS011;41590;53.366;5.212;2022-09-13T05:26:58;4.35;;;0.57;;
55692;SDS011;41590;53.366;5.212;2022-09-13T05:29:23;4.38;;;0.60;;
55692;SDS011;41590;53.366;5.212;2022-09-13T05:31:49;6.05;;;0.75;;
55692;SDS011;41590;53.366;5.212;2022-09-13T05:34:15;3.30;;;0.57;;
55692;SDS011;41590;53.366;5.212;2022-09-13T05:36:42;4.50;;;0.70;;
55692;SDS011;41590;53.366;5.212;2022-09-13T05:39:12;8.80;;;0.70;;
55692;SDS011;41590;53.366;5.212;2022-09-13T05:41:41;7.20;;;0.65;;
55692;SDS011;41590;53.366;5.212;2022-09-13T05:44:08;6.53;;;0.80;;
55692;SDS011;41590;53.366;5.212;2022-09-13T05:46:36;6.43;;;1.00;;
55692;SDS011;41590;53.366;5.212;2022-09-13T05:49:03;4.80;;;0.77;;
55692;SDS011;41590;53.366;5.212;2022-09-13T05:51:29;11.57;;;1.67;;
55692;SDS011;41590;53.366;5.212;2022-09-13T05:53:55;2.95;;;0.90;;
55692;SDS011;41590;53.366;5.212;2022-09-13T05:56:24;7.25;;;0.70;;
55692;SDS011;41590;53.366;5.212;2022-09-13T05:58:52;3.20;;;0.50;;
55692;SDS011;41590;53.366;5.212;2022-09-13T06:01:25;2.60;;;0.55;;
55692;SDS011;41590;53.366;5.212;2022-09-13T06:03:54;3.17;;;0.65;;
55692;SDS011;41590;53.366;5.212;2022-09-13T06:06:21;9.20;;;1.10;;
55692;SDS011;41590;53.366;5.212;2022-09-13T06:08:53;8.73;;;0.88;;
55692;SDS011;41590;53.366;5.212;2022-09-13T06:11:21;4.57;;;0.90;;
55692;SDS011;41590;53.366;5.212;2022-09-13T06:13:50;8.65;;;0.90;;
55692;SDS011;41590;53.366;5.212;2022-09-13T06:16:16;3.80;;;0.77;;
55692;SDS011;41590;53.366;5.212;2022-09-13T06:18:43;4.85;;;0.98;;
55692;SDS011;41590;53.366;5.212;2022-09-13T06:21:16;6.18;;;0.70;;
55692;SDS011;41590;53.366;5.212;2022-09-13T06:23:47;17.33;;;1.90;;
55692;SDS011;41590;53.366;5.212;2022-09-13T06:26:20;5.65;;;0.82;;
55692;SDS011;41590;53.366;5.212;2022-09-13T06:28:48;4.32;;;0.75;;
55692;SDS011;41590;53.366;5.212;2022-09-13T06:31:22;7.40;;;0.68;;
55692;SDS011;41590;53.366;5.212;2022-09-13T06:33:59;6.05;;;0.82;;
55692;SDS011;41590;53.366;5.212;2022-09-13T06:36:28;6.78;;;1.33;;
55692;SDS011;41590;53.366;5.212;2022-09-13T06:38:54;5.20;;;0.80;;
55692;SDS011;41590;53.366;5.212;2022-09-13T06:41:25;9.60;;;1.00;;
55692;SDS011;41590;53.366;5.212;2022-09-13T06:43:54;5.05;;;0.65;;
55692;SDS011;41590;53.366;5.212;2022-09-13T06:46:22;5.05;;;0.82;;
55692;SDS011;41590;53.366;5.212;2022-09-13T06:48:50;4.80;;;0.70;;
55692;SDS011;41590;53.366;5.212;2022-09-13T06:51:22;6.50;;;1.02;;
55692;SDS011;41590;53.366;5.212;2022-09-13T06:56:25;6.28;;;1.08;;
55692;SDS011;41590;53.366;5.212;2022-09-13T06:58:58;4.28;;;0.90;;
55692;SDS011;41590;53.366;5.212;2022-09-13T07:01:30;7.35;;;0.80;;
55692;SDS011;41590;53.366;5.212;2022-09-13T07:06:38;4.97;;;0.80;;
55692;SDS011;41590;53.366;5.212;2022-09-13T07:09:06;5.43;;;0.60;;
55692;SDS011;41590;53.366;5.212;2022-09-13T07:11:38;11.07;;;1.20;;
55692;SDS011;41590;53.366;5.212;2022-09-13T07:14:06;5.15;;;0.90;;
55692;SDS011;41590;53.366;5.212;2022-09-13T07:16:34;7.78;;;0.80;;
55692;SDS011;41590;53.366;5.212;2022-09-13T07:19:11;5.07;;;1.67;;
55692;SDS011;41590;53.366;5.212;2022-09-13T07:21:41;6.95;;;1.08;;
55692;SDS011;41590;53.366;5.212;2022-09-13T07:24:12;4.20;;;0.85;;
55692;SDS011;41590;53.366;5.212;2022-09-13T07:26:37;6.32;;;1.00;;
55692;SDS011;41590;53.366;5.212;2022-09-13T07:29:09;6.13;;;0.90;;
55692;SDS011;41590;53.366;5.212;2022-09-13T07:31:41;8.75;;;1.27;;
55692;SDS011;41590;53.366;5.212;2022-09-13T07:34:14;6.93;;;1.00;;
55692;SDS011;41590;53.366;5.212;2022-09-13T07:39:14;7.05;;;0.90;;
55692;SDS011;41590;53.366;5.212;2022-09-13T07:41:41;5.85;;;0.82;;
55692;SDS011;41590;53.366;5.212;2022-09-13T07:44:11;9.35;;;0.95;;
55692;SDS011;41590;53.366;5.212;2022-09-13T07:46:37;4.80;;;0.90;;
55692;SDS011;41590;53.366;5.212;2022-09-13T07:49:06;5.85;;;0.82;;
55692;SDS011;41590;53.366;5.212;2022-09-13T07:54:21;6.13;;;0.70;;
55692;SDS011;41590;53.366;5.212;2022-09-13T07:56:49;6.30;;;0.95;;
55692;SDS011;41590;53.366;5.212;2022-09-13T07:59:17;4.47;;;0.80;;
55692;SDS011;41590;53.366;5.212;2022-09-13T08:01:49;4.78;;;0.82;;
55692;SDS011;41590;53.366;5.212;2022-09-13T08:04:23;2.00;;;0.63;;
55692;SDS011;41590;53.366;5.212;2022-09-13T08:06:49;4.93;;;0.90;;
55692;SDS011;41590;53.366;5.212;2022-09-13T08:09:17;3.72;;;0.70;;
55692;SDS011;41590;53.366;5.212;2022-09-13T08:11:50;4.05;;;1.25;;
55692;SDS011;41590;53.366;5.212;2022-09-13T08:14:17;6.47;;;0.77;;
55692;SDS011;41590;53.366;5.212;2022-09-13T08:16:46;6.40;;;0.90;;
55692;SDS011;41590;53.366;5.212;2022-09-13T08:21:43;6.10;;;1.05;;
55692;SDS011;41590;53.366;5.212;2022-09-13T08:24:20;6.05;;;0.60;;
55692;SDS011;41590;53.366;5.212;2022-09-13T08:26:46;11.88;;;1.45;;
55692;SDS011;41590;53.366;5.212;2022-09-13T08:29:13;5.38;;;0.80;;
55692;SDS011;41590;53.366;5.212;2022-09-13T08:31:42;5.45;;;0.50;;
55692;SDS011;41590;53.366;5.212;2022-09-13T08:34:12;3.45;;;0.70;;
55692;SDS011;41590;53.366;5.212;2022-09-13T08:36:39;5.30;;;0.73;;
55692;SDS011;41590;53.366;5.212;2022-09-13T08:39:05;6.38;;;0.80;;
55692;SDS011;41590;53.366;5.212;2022-09-13T08:44:13;2.97;;;0.57;;
55692;SDS011;41590;53.366;5.212;2022-09-13T08:46:53;5.90;;;0.93;;
55692;SDS011;41590;53.366;5.212;2022-09-13T08:49:43;7.00;;;0.57;;
55692;SDS011;41590;53.366;5.212;2022-09-13T08:54:45;6.00;;;0.90;;
55692;SDS011;41590;53.366;5.212;2022-09-13T08:57:22;2.85;;;0.60;;
55692;SDS011;41590;53.366;5.212;2022-09-13T09:02:26;4.18;;;0.47;;
55692;SDS011;41590;53.366;5.212;2022-09-13T09:05:19;4.03;;;0.52;;
55692;SDS011;41590;53.366;5.212;2022-09-13T09:08:11;3.83;;;1.00;;
55692;SDS011;41590;53.366;5.212;2022-09-13T09:13:23;5.38;;;1.35;;
55692;SDS011;41590;53.366;5.212;2022-09-13T09:16:00;3.08;;;0.40;;
55692;SDS011;41590;53.366;5.212;2022-09-13T09:21:11;4.18;;;0.70;;
55692;SDS011;41590;53.366;5.212;2022-09-13T09:23:51;5.88;;;0.68;;
55692;SDS011;41590;53.366;5.212;2022-09-13T09:26:29;3.83;;;0.73;;
55692;SDS011;41590;53.366;5.212;2022-09-13T09:40:56;5.50;;;0.50;;
55692;SDS011;41590;53.366;5.212;2022-09-13T09:43:45;11.10;;;1.15;;
55692;SDS011;41590;53.366;5.212;2022-09-13T09:46:24;12.32;;;1.50;;
55692;SDS011;41590;53.366;5.212;2022-09-13T09:48:59;10.93;;;1.33;;
55692;SDS011;41590;53.366;5.212;2022-09-13T09:52:06;5.35;;;1.23;;
55692;SDS011;41590;53.366;5.212;2022-09-13T09:54:37;6.47;;;1.27;;
55692;SDS011;41590;53.366;5.212;2022-09-13T09:57:13;5.20;;;1.02;;
55692;SDS011;41590;53.366;5.212;2022-09-13T09:59:41;4.60;;;0.73;;
55692;SDS011;41590;53.366;5.212;2022-09-13T10:02:19;9.57;;;1.58;;
55692;SDS011;41590;53.366;5.212;2022-09-13T10:07:48;9.40;;;1.35;;
55692;SDS011;41590;53.366;5.212;2022-09-13T10:13:28;7.47;;;0.80;;
55692;SDS011;41590;53.366;5.212;2022-09-13T10:15:57;9.00;;;1.20;;
55692;SDS011;41590;53.366;5.212;2022-09-13T10:23:53;5.10;;;1.17;;
55692;SDS011;41590;53.366;5.212;2022-09-13T10:26:48;10.63;;;1.52;;
55692;SDS011;41590;53.366;5.212;2022-09-13T10:29:15;8.70;;;1.20;;
55692;SDS011;41590;53.366;5.212;2022-09-13T10:31:59;8.48;;;1.00;;
55692;SDS011;41590;53.366;5.212;2022-09-13T10:34:34;9.02;;;1.23;;
55692;SDS011;41590;53.366;5.212;2022-09-13T10:37:12;8.40;;;1.20;;
55692;SDS011;41590;53.366;5.212;2022-09-13T10:42:53;7.45;;;1.40;;
55692;SDS011;41590;53.366;5.212;2022-09-13T10:45:25;5.53;;;0.90;;
55692;SDS011;41590;53.366;5.212;2022-09-13T10:53:30;8.77;;;1.23;;
55692;SDS011;41590;53.366;5.212;2022-09-13T10:56:04;8.30;;;1.52;;
55692;SDS011;41590;53.366;5.212;2022-09-13T10:58:44;7.72;;;1.10;;
55692;SDS011;41590;53.366;5.212;2022-09-13T11:04:23;4.10;;;0.98;;
55692;SDS011;41590;53.366;5.212;2022-09-13T11:12:46;8.75;;;1.20;;
55692;SDS011;41590;53.366;5.212;2022-09-13T11:30:08;5.72;;;1.30;;
55692;SDS011;41590;53.366;5.212;2022-09-13T11:35:35;9.60;;;1.50;;
55692;SDS011;41590;53.366;5.212;2022-09-13T11:46:56;6.75;;;1.05;;
55692;SDS011;41590;53.366;5.212;2022-09-13T11:55:29;7.88;;;1.33;;
55692;SDS011;41590;53.366;5.212;2022-09-13T11:58:04;8.13;;;1.33;;
55692;SDS011;41590;53.366;5.212;2022-09-13T12:00:42;6.57;;;1.08;;
55692;SDS011;41590;53.366;5.212;2022-09-13T12:06:34;6.90;;;0.88;;
55692;SDS011;41590;53.366;5.212;2022-09-13T12:09:12;6.28;;;1.30;;
55692;SDS011;41590;53.366;5.212;2022-09-13T12:11:47;5.75;;;1.20;;
55692;SDS011;41590;53.366;5.212;2022-09-13T12:14:24;6.88;;;1.48;;
55692;SDS011;41590;53.366;5.212;2022-09-13T12:16:56;8.20;;;1.52;;
55692;SDS011;41590;53.366;5.212;2022-09-13T12:22:06;6.30;;;1.10;;
55692;SDS011;41590;53.366;5.212;2022-09-13T12:24:47;8.95;;;1.13;;
55692;SDS011;41590;53.366;5.212;2022-09-13T12:30:20;9.02;;;0.90;;
55692;SDS011;41590;53.366;5.212;2022-09-13T12:32:49;5.15;;;1.00;;
55692;SDS011;41590;53.366;5.212;2022-09-13T12:38:15;9.15;;;1.10;;
55692;SDS011;41590;53.366;5.212;2022-09-13T12:54:40;8.18;;;0.70;;
55692;SDS011;41590;53.366;5.212;2022-09-13T13:08:58;6.50;;;1.10;;
55692;SDS011;41590;53.366;5.212;2022-09-13T13:11:42;6.13;;;0.70;;
55692;SDS011;41590;53.366;5.212;2022-09-13T13:23:35;7.72;;;0.90;;
55692;SDS011;41590;53.366;5.212;2022-09-13T13:29:27;11.23;;;1.40;;
55692;SDS011;41590;53.366;5.212;2022-09-13T13:34:58;7.82;;;0.70;;
55692;SDS011;41590;53.366;5.212;2022-09-13T13:41:42;5.05;;;0.70;;
55692;SDS011;41590;53.366;5.212;2022-09-13T13:46:48;5.47;;;0.90;;
55692;SDS011;41590;53.366;5.212;2022-09-13T14:00:14;3.28;;;0.50;;
55692;SDS011;41590;53.366;5.212;2022-09-13T14:08:18;5.60;;;0.90;;
55692;SDS011;41590;53.366;5.212;2022-09-13T14:13:53;6.07;;;0.90;;
55692;SDS011;41590;53.366;5.212;2022-09-13T14:19:23;7.07;;;0.98;;
55692;SDS011;41590;53.366;5.212;2022-09-13T14:22:27;8.70;;;1.02;;
55692;SDS011;41590;53.366;5.212;2022-09-13T14:30:03;5.53;;;1.00;;
55692;SDS011;41590;53.366;5.212;2022-09-13T14:32:41;6.15;;;0.90;;
55692;SDS011;41590;53.366;5.212;2022-09-13T14:35:27;7.75;;;1.23;;
55692;SDS011;41590;53.366;5.212;2022-09-13T14:38:15;5.75;;;0.90;;
55692;SDS011;41590;53.366;5.212;2022-09-13T14:40:48;7.00;;;0.90;;
55692;SDS011;41590;53.366;5.212;2022-09-13T14:45:53;6.00;;;0.80;;
55692;SDS011;41590;53.366;5.212;2022-09-13T14:48:26;4.15;;;0.82;;
55692;SDS011;41590;53.366;5.212;2022-09-13T14:53:44;12.15;;;1.30;;
55692;SDS011;41590;53.366;5.212;2022-09-13T14:56:25;7.05;;;1.05;;
55692;SDS011;41590;53.366;5.212;2022-09-13T14:58:56;5.65;;;1.13;;
55692;SDS011;41590;53.366;5.212;2022-09-13T15:01:29;5.03;;;1.15;;
55692;SDS011;41590;53.366;5.212;2022-09-13T15:04:08;3.22;;;1.00;;
55692;SDS011;41590;53.366;5.212;2022-09-13T15:06:39;3.78;;;0.73;;
55692;SDS011;41590;53.366;5.212;2022-09-13T15:09:25;8.32;;;0.80;;
55692;SDS011;41590;53.366;5.212;2022-09-13T15:11:55;7.03;;;0.88;;
55692;SDS011;41590;53.366;5.212;2022-09-13T15:14:35;3.42;;;0.70;;
55692;SDS011;41590;53.366;5.212;2022-09-13T15:17:07;5.72;;;0.80;;
55692;SDS011;41590;53.366;5.212;2022-09-13T15:22:30;5.22;;;0.50;;
55692;SDS011;41590;53.366;5.212;2022-09-13T15:25:00;2.88;;;0.50;;
55692;SDS011;41590;53.366;5.212;2022-09-13T15:27:29;4.32;;;0.50;;
55692;SDS011;41590;53.366;5.212;2022-09-13T15:30:01;4.47;;;0.52;;
55692;SDS011;41590;53.366;5.212;2022-09-13T15:35:48;8.13;;;1.02;;
55692;SDS011;41590;53.366;5.212;2022-09-13T15:38:24;4.00;;;0.55;;
55692;SDS011;41590;53.366;5.212;2022-09-13T15:46:46;6.10;;;0.63;;
55692;SDS011;41590;53.366;5.212;2022-09-13T15:51:57;3.15;;;0.60;;
55692;SDS011;41590;53.366;5.212;2022-09-13T15:54:33;4.65;;;0.65;;
55692;SDS011;41590;53.366;5.212;2022-09-13T16:04:15;6.22;;;0.77;;
55692;SDS011;41590;53.366;5.212;2022-09-13T16:06:42;4.40;;;0.40;;
55692;SDS011;41590;53.366;5.212;2022-09-13T16:09:18;4.50;;;0.88;;
55692;SDS011;41590;53.366;5.212;2022-09-13T16:11:44;1.83;;;0.60;;
55692;SDS011;41590;53.366;5.212;2022-09-13T16:14:17;2.83;;;0.65;;
55692;SDS011;41590;53.366;5.212;2022-09-13T16:16:43;4.13;;;0.77;;
55692;SDS011;41590;53.366;5.212;2022-09-13T16:19:19;5.95;;;0.75;;
55692;SDS011;41590;53.366;5.212;2022-09-13T16:24:29;3.63;;;0.50;;
55692;SDS011;41590;53.366;5.212;2022-09-13T16:27:04;4.45;;;0.77;;
55692;SDS011;41590;53.366;5.212;2022-09-13T16:29:31;6.22;;;2.20;;
55692;SDS011;41590;53.366;5.212;2022-09-13T16:31:58;3.45;;;1.05;;
55692;SDS011;41590;53.366;5.212;2022-09-13T16:34:27;5.80;;;1.13;;
55692;SDS011;41590;53.366;5.212;2022-09-13T16:36:54;4.68;;;0.95;;
55692;SDS011;41590;53.366;5.212;2022-09-13T16:39:20;8.93;;;1.10;;
55692;SDS011;41590;53.366;5.212;2022-09-13T16:44:14;7.38;;;0.70;;
55692;SDS011;41590;53.366;5.212;2022-09-13T16:46:40;3.65;;;0.70;;
55692;SDS011;41590;53.366;5.212;2022-09-13T16:49:06;5.97;;;0.70;;
55692;SDS011;41590;53.366;5.212;2022-09-13T16:51:32;2.88;;;0.60;;
55692;SDS011;41590;53.366;5.212;2022-09-13T16:54:01;3.83;;;0.70;;
55692;SDS011;41590;53.366;5.212;2022-09-13T16:56:28;5.97;;;1.27;;
55692;SDS011;41590;53.366;5.212;2022-09-13T16:59:11;10.40;;;1.00;;
55692;SDS011;41590;53.366;5.212;2022-09-13T17:01:49;6.93;;;0.73;;
55692;SDS011;41590;53.366;5.212;2022-09-13T17:04:19;5.60;;;1.00;;
55692;SDS011;41590;53.366;5.212;2022-09-13T17:09:14;6.88;;;1.27;;
55692;SDS011;41590;53.366;5.212;2022-09-13T17:11:41;6.18;;;2.05;;
55692;SDS011;41590;53.366;5.212;2022-09-13T17:14:09;7.05;;;1.63;;
55692;SDS011;41590;53.366;5.212;2022-09-13T17:16:46;13.32;;;3.05;;
55692;SDS011;41590;53.366;5.212;2022-09-13T17:19:26;9.07;;;1.25;;
55692;SDS011;41590;53.366;5.212;2022-09-13T17:21:56;3.92;;;1.08;;
55692;SDS011;41590;53.366;5.212;2022-09-13T17:24:22;3.88;;;1.83;;
55692;SDS011;41590;53.366;5.212;2022-09-13T17:26:53;5.03;;;1.00;;
55692;SDS011;41590;53.366;5.212;2022-09-13T17:29:27;5.90;;;0.95;;
55692;SDS011;41590;53.366;5.212;2022-09-13T17:31:56;10.43;;;1.75;;
55692;SDS011;41590;53.366;5.212;2022-09-13T17:34:23;6.30;;;1.42;;
55692;SDS011;41590;53.366;5.212;2022-09-13T17:36:50;7.63;;;1.33;;
55692;SDS011;41590;53.366;5.212;2022-09-13T17:39:17;4.72;;;1.00;;
55692;SDS011;41590;53.366;5.212;2022-09-13T17:41:43;5.05;;;0.90;;
55692;SDS011;41590;53.366;5.212;2022-09-13T17:44:09;8.20;;;0.75;;
55692;SDS011;41590;53.366;5.212;2022-09-13T17:46:37;6.68;;;0.57;;
55692;SDS011;41590;53.366;5.212;2022-09-13T17:49:03;4.75;;;0.50;;
55692;SDS011;41590;53.366;5.212;2022-09-13T17:51:30;3.03;;;0.73;;
55692;SDS011;41590;53.366;5.212;2022-09-13T17:53:58;5.43;;;0.80;;
55692;SDS011;41590;53.366;5.212;2022-09-13T17:56:26;4.68;;;0.85;;
55692;SDS011;41590;53.366;5.212;2022-09-13T17:59:17;9.20;;;0.68;;
55692;SDS011;41590;53.366;5.212;2022-09-13T18:01:49;6.88;;;1.38;;
55692;SDS011;41590;53.366;5.212;2022-09-13T18:04:18;7.40;;;1.07;;
55692;SDS011;41590;53.366;5.212;2022-09-13T18:06:51;4.78;;;0.60;;
55692;SDS011;41590;53.366;5.212;2022-09-13T18:09:18;9.50;;;1.30;;
55692;SDS011;41590;53.366;5.212;2022-09-13T18:11:48;6.72;;;1.33;;
55692;SDS011;41590;53.366;5.212;2022-09-13T18:14:16;5.22;;;0.70;;
55692;SDS011;41590;53.366;5.212;2022-09-13T18:16:43;6.50;;;1.00;;
55692;SDS011;41590;53.366;5.212;2022-09-13T18:19:11;7.05;;;0.80;;
55692;SDS011;41590;53.366;5.212;2022-09-13T18:21:38;3.45;;;0.68;;
55692;SDS011;41590;53.366;5.212;2022-09-13T18:24:04;5.00;;;0.77;;
55692;SDS011;41590;53.366;5.212;2022-09-13T18:26:31;3.50;;;0.80;;
55692;SDS011;41590;53.366;5.212;2022-09-13T18:29:00;5.97;;;0.80;;
55692;SDS011;41590;53.366;5.212;2022-09-13T18:31:31;9.30;;;1.10;;
55692;SDS011;41590;53.366;5.212;2022-09-13T18:39:05;4.55;;;0.77;;
55692;SDS011;41590;53.366;5.212;2022-09-13T18:41:37;3.85;;;0.70;;
55692;SDS011;41590;53.366;5.212;2022-09-13T18:44:04;4.38;;;0.57;;
55692;SDS011;41590;53.366;5.212;2022-09-13T18:46:33;4.88;;;0.60;;
55692;SDS011;41590;53.366;5.212;2022-09-13T18:48:59;5.97;;;0.57;;
55692;SDS011;41590;53.366;5.212;2022-09-13T18:51:45;4.47;;;0.60;;
55692;SDS011;41590;53.366;5.212;2022-09-13T18:56:45;3.17;;;0.63;;
55692;SDS011;41590;53.366;5.212;2022-09-13T18:59:12;5.78;;;1.00;;
55692;SDS011;41590;53.366;5.212;2022-09-13T19:01:39;3.00;;;0.77;;
55692;SDS011;41590;53.366;5.212;2022-09-13T19:04:09;7.78;;;0.98;;
55692;SDS011;41590;53.366;5.212;2022-09-13T19:06:38;4.57;;;0.68;;
55692;SDS011;41590;53.366;5.212;2022-09-13T19:09:07;3.20;;;0.70;;
55692;SDS011;41590;53.366;5.212;2022-09-13T19:14:12;6.45;;;0.80;;
55692;SDS011;41590;53.366;5.212;2022-09-13T19:16:54;5.35;;;0.80;;
55692;SDS011;41590;53.366;5.212;2022-09-13T19:21:50;7.93;;;1.30;;
55692;SDS011;41590;53.366;5.212;2022-09-13T19:24:16;3.47;;;1.00;;
55692;SDS011;41590;53.366;5.212;2022-09-13T19:26:43;5.03;;;0.70;;
55692;SDS011;41590;53.366;5.212;2022-09-13T19:29:11;5.18;;;0.85;;
55692;SDS011;41590;53.366;5.212;2022-09-13T19:31:39;6.57;;;1.00;;
55692;SDS011;41590;53.366;5.212;2022-09-13T19:34:07;8.65;;;1.15;;
55692;SDS011;41590;53.366;5.212;2022-09-13T19:36:34;5.63;;;0.85;;
55692;SDS011;41590;53.366;5.212;2022-09-13T19:39:02;9.55;;;1.02;;
55692;SDS011;41590;53.366;5.212;2022-09-13T19:41:29;4.75;;;1.30;;
55692;SDS011;41590;53.366;5.212;2022-09-13T19:43:57;7.82;;;1.08;;
55692;SDS011;41590;53.366;5.212;2022-09-13T19:46:28;8.07;;;1.10;;
55692;SDS011;41590;53.366;5.212;2022-09-13T19:48:56;9.35;;;1.25;;
55692;SDS011;41590;53.366;5.212;2022-09-13T19:51:33;7.70;;;0.98;;
55692;SDS011;41590;53.366;5.212;2022-09-13T19:54:01;10.55;;;1.00;;
55692;SDS011;41590;53.366;5.212;2022-09-13T19:56:29;5.95;;;1.08;;
55692;SDS011;41590;53.366;5.212;2022-09-13T19:58:57;14.30;;;1.52;;
55692;SDS011;41590;53.366;5.212;2022-09-13T20:01:25;6.65;;;0.93;;
55692;SDS011;41590;53.366;5.212;2022-09-13T20:03:56;3.58;;;0.90;;
55692;SDS011;41590;53.366;5.212;2022-09-13T20:06:24;6.15;;;1.02;;
55692;SDS011;41590;53.366;5.212;2022-09-13T20:08:58;3.83;;;0.80;;
55692;SDS011;41590;53.366;5.212;2022-09-13T20:11:26;11.35;;;1.55;;
55692;SDS011;41590;53.366;5.212;2022-09-13T20:13:53;7.15;;;1.27;;
55692;SDS011;41590;53.366;5.212;2022-09-13T20:16:24;5.00;;;1.38;;
55692;SDS011;41590;53.366;5.212;2022-09-13T20:18:51;8.43;;;0.95;;
55692;SDS011;41590;53.366;5.212;2022-09-13T20:21:20;13.38;;;1.48;;
55692;SDS011;41590;53.366;5.212;2022-09-13T20:23:51;5.53;;;0.80;;
55692;SDS011;41590;53.366;5.212;2022-09-13T20:26:28;11.23;;;1.60;;